Time;durP1;ratioP1;P1;durP2;ratioP2;P2;SDS_P1;SDS_P2;PMS_P1;PMS_P2;Temp;Humidity;BMP_temperature;BMP_pressure;BME280_temperature;BME280_humidity;BME280_pressure;Samples;Min_cycle;Max_cycle;Signal;HPM_P1;HPM_P2
2022/01/12 00:02:14;;;;;;;13.23;7.07;;;9.00;80.30;;;;;;5069093;28;20135;-75
2022/01/12 00:04:40;;;;;;;15.93;7.22;;;8.90;80.10;;;;;;5068266;28;20033;-75
2022/01/12 00:07:06;;;;;;;13.38;7.10;;;8.90;80.20;;;;;;5068977;28;20472;-75
2022/01/12 00:09:32;;;;;;;15.93;6.75;;;8.90;80.20;;;;;;5049827;28;20120;-75
2022/01/12 00:11:59;;;;;;;17.95;8.30;;;8.80;80.00;;;;;;5068509;28;20040;-75
2022/01/12 00:14:27;;;;;;;14.50;7.20;;;8.80;80.10;;;;;;5068382;28;20041;-75
2022/01/12 00:16:58;;;;;;;9.98;6.50;;;8.70;79.90;;;;;;5068997;28;20036;-75
2022/01/12 00:19:26;;;;;;;12.23;6.25;;;8.70;79.90;;;;;;5069114;28;20192;-75
2022/01/12 00:21:55;;;;;;;11.88;6.00;;;8.70;79.90;;;;;;5069147;28;20031;-75
2022/01/12 00:24:24;;;;;;;11.85;6.43;;;8.60;79.80;;;;;;5059894;28;20100;-75
2022/01/12 00:35:04;;;;;;;12.70;6.85;;;8.50;79.60;;;;;;5067633;28;20448;-75
2022/01/12 00:37:30;;;;;;;11.15;5.95;;;8.50;79.60;;;;;;5050071;28;20031;-75
2022/01/12 00:39:58;;;;;;;12.73;5.70;;;8.40;79.40;;;;;;5049973;28;20116;-75
2022/01/12 00:42:28;;;;;;;10.20;6.78;;;8.40;79.50;;;;;;5048712;28;20025;-75
2022/01/12 00:44:55;;;;;;;14.50;6.45;;;8.40;79.50;;;;;;5068046;28;20111;-74
2022/01/12 00:47:21;;;;;;;13.98;6.15;;;8.30;79.30;;;;;;5068169;28;20255;-75
2022/01/12 00:49:47;;;;;;;15.98;7.18;;;8.30;79.30;;;;;;5049945;28;20058;-75
2022/01/12 00:52:13;;;;;;;15.40;6.40;;;8.30;79.30;;;;;;5049740;28;20036;-75
2022/01/12 00:54:39;;;;;;;12.80;6.90;;;8.20;79.20;;;;;;5067935;28;20120;-74
2022/01/12 00:57:05;;;;;;;9.00;6.13;;;8.20;79.20;;;;;;5049634;28;20044;-76
2022/01/12 00:59:31;;;;;;;13.95;6.70;;;8.20;79.20;;;;;;5067155;28;20120;-76
2022/01/12 01:01:57;;;;;;;14.82;6.65;;;8.10;79.00;;;;;;5049491;28;20475;-76
2022/01/12 01:04:25;;;;;;;12.27;6.75;;;8.10;79.00;;;;;;5049580;28;20145;-76
2022/01/12 01:06:54;;;;;;;9.10;6.30;;;8.00;78.90;;;;;;5067051;28;20484;-76
2022/01/12 01:09:23;;;;;;;11.63;6.50;;;8.00;78.90;;;;;;5049043;28;20303;-76
2022/01/12 01:11:50;;;;;;;11.75;6.63;;;8.00;78.90;;;;;;5049224;28;20431;-75
2022/01/12 01:14:26;;;;;;;12.45;6.55;;;8.00;78.90;;;;;;5049344;28;20460;-76
2022/01/12 01:25:31;;;;;;;12.00;6.00;;;7.80;78.60;;;;;;5042197;28;20032;-76
2022/01/12 01:28:01;;;;;;;13.40;6.22;;;7.80;78.60;;;;;;5065814;28;20122;-76
2022/01/12 01:30:29;;;;;;;13.18;6.50;;;7.70;78.40;;;;;;5048993;28;20399;-76
2022/01/12 01:33:03;;;;;;;10.73;6.10;;;7.80;78.60;;;;;;5049397;28;20059;-76
2022/01/12 01:35:30;;;;;;;11.23;6.47;;;7.70;78.40;;;;;;5065573;28;20028;-75
2022/01/12 01:37:59;;;;;;;16.08;7.47;;;7.70;78.40;;;;;;5048732;28;20426;-76
2022/01/12 01:40:28;;;;;;;8.52;5.18;;;7.70;78.40;;;;;;5048786;28;20036;-74
2022/01/12 01:53:50;;;;;;;8.93;6.15;;;7.50;78.20;;;;;;5050421;28;20348;-75
2022/01/12 01:56:19;;;;;;;11.82;6.55;;;7.40;78.00;;;;;;5050034;28;20520;-75
2022/01/12 01:58:46;;;;;;;11.55;6.15;;;7.30;77.80;;;;;;5067177;28;20093;-75
2022/01/12 02:01:12;;;;;;;14.48;6.57;;;7.30;77.90;;;;;;5050311;28;20413;-74
2022/01/12 02:03:46;;;;;;;10.27;6.07;;;7.30;77.90;;;;;;5049595;28;20036;-75
2022/01/12 02:06:12;;;;;;;13.57;6.60;;;7.30;77.90;;;;;;5048800;28;20377;-75
2022/01/12 02:08:38;;;;;;;13.70;6.22;;;7.20;77.70;;;;;;5048891;28;20037;-75
2022/01/12 02:11:28;;;;;;;11.55;5.90;;;7.20;77.80;;;;;;5048283;28;20060;-75
2022/01/12 02:14:00;;;;;;;10.90;5.95;;;7.20;77.80;;;;;;5064770;28;20173;-75
2022/01/12 02:16:37;;;;;;;10.98;5.32;;;7.10;77.60;;;;;;5066572;28;20114;-75
2022/01/12 02:19:42;;;;;;;10.95;5.38;;;7.10;77.60;;;;;;5037882;28;20392;-75
2022/01/12 02:35:52;;;;;;;12.23;7.00;;;6.90;77.30;;;;;;5029639;28;20082;-74
2022/01/12 02:41:04;;;;;;;10.95;7.38;;;6.80;77.10;;;;;;5052212;28;20214;-75
2022/01/12 02:53:38;;;;;;;11.10;6.53;;;6.80;77.10;;;;;;5074433;28;20033;-74
2022/01/12 02:54:20;;;;;;;11.80;5.72;;;6.70;76.90;;;;;;5073665;28;20112;-73
2022/01/12 02:56:46;;;;;;;9.73;5.65;;;6.70;76.90;;;;;;5074107;28;20106;-75
2022/01/12 02:59:13;;;;;;;11.63;5.90;;;6.70;76.90;;;;;;5056682;28;20435;-75
2022/01/12 03:02:09;;;;;;;9.70;5.70;;;6.70;76.90;;;;;;5072969;28;20052;-75
2022/01/12 03:04:37;;;;;;;9.68;6.32;;;6.70;76.90;;;;;;5056735;28;20044;-74
2022/01/12 03:07:09;;;;;;;10.13;5.90;;;6.70;76.90;;;;;;5056705;28;20023;-75
2022/01/12 03:09:36;;;;;;;8.88;5.60;;;6.60;76.70;;;;;;5072798;28;20278;-75
2022/01/12 03:12:02;;;;;;;7.63;5.85;;;6.60;76.70;;;;;;5055727;28;20487;-75
2022/01/12 03:14:28;;;;;;;9.18;5.43;;;6.60;76.60;;;;;;5056238;28;20040;-74
2022/01/12 03:16:55;;;;;;;12.48;6.10;;;6.60;76.70;;;;;;5074261;28;20021;-74
2022/01/12 03:19:27;;;;;;;10.93;6.38;;;6.50;76.50;;;;;;5073244;28;20123;-73
2022/01/12 03:21:53;;;;;;;10.55;5.88;;;6.50;77.00;;;;;;5055822;28;20438;-74
2022/01/12 03:24:20;;;;;;;11.52;6.15;;;6.50;76.50;;;;;;5056297;28;20261;-74
2022/01/12 03:26:48;;;;;;;9.57;6.22;;;6.50;76.50;;;;;;5055980;28;20120;-75
2022/01/12 03:29:16;;;;;;;7.22;5.50;;;6.50;76.40;;;;;;5054246;28;20025;-75
2022/01/12 03:31:43;;;;;;;10.38;6.15;;;6.50;76.40;;;;;;5054855;28;20036;-75
2022/01/12 03:34:22;;;;;;;10.00;5.57;;;6.40;76.20;;;;;;5073445;28;20040;-74
2022/01/12 03:39:32;;;;;;;9.60;5.88;;;6.30;76.10;;;;;;5055895;28;20072;-74
2022/01/12 03:41:58;;;;;;;8.73;5.75;;;6.30;76.10;;;;;;5055229;28;20032;-75
2022/01/12 03:44:24;;;;;;;6.57;5.13;;;6.30;76.10;;;;;;5055501;28;20028;-74
2022/01/12 03:46:52;;;;;;;8.57;5.63;;;6.30;76.10;;;;;;5075018;28;20020;-75
2022/01/12 03:49:20;;;;;;;12.15;6.22;;;6.20;76.00;;;;;;5055952;28;20419;-75
2022/01/12 03:51:48;;;;;;;6.93;5.32;;;6.20;76.00;;;;;;5074339;28;20549;-74
2022/01/12 03:54:15;;;;;;;9.63;5.30;;;6.20;76.00;;;;;;5072231;28;20049;-75
2022/01/12 03:56:41;;;;;;;8.20;4.97;;;6.20;76.00;;;;;;5055964;28;20555;-74
2022/01/12 03:59:07;;;;;;;9.65;5.53;;;6.20;76.00;;;;;;5055720;28;20107;-74
2022/01/12 04:01:36;;;;;;;8.25;5.40;;;6.10;75.90;;;;;;5056152;28;20028;-74
2022/01/12 04:04:11;;;;;;;8.48;5.60;;;6.10;75.90;;;;;;5055742;28;20024;-75
2022/01/12 04:09:21;;;;;;;7.97;5.22;;;6.10;75.90;;;;;;5055431;28;20033;-75
2022/01/12 04:11:47;;;;;;;9.75;5.30;;;6.00;75.70;;;;;;5071735;28;20090;-75
2022/01/12 04:14:13;;;;;;;6.95;4.57;;;6.00;75.70;;;;;;5054645;28;20032;-75
2022/01/12 04:16:39;;;;;;;9.05;5.60;;;6.00;75.70;;;;;;5055429;28;20036;-75
2022/01/12 04:19:06;;;;;;;10.43;6.13;;;6.00;75.70;;;;;;5038541;28;20127;-74
2022/01/12 04:21:40;;;;;;;10.93;5.00;;;6.00;75.70;;;;;;5054669;28;20033;-75
2022/01/12 04:24:06;;;;;;;13.18;5.55;;;5.90;75.50;;;;;;5072877;28;20028;-74
2022/01/12 04:26:32;;;;;;;7.22;5.45;;;5.90;75.50;;;;;;5072785;28;20028;-75
2022/01/12 04:29:00;;;;;;;7.43;5.10;;;5.90;75.50;;;;;;5071566;28;20047;-74
2022/01/12 04:31:26;;;;;;;8.07;4.93;;;5.90;75.50;;;;;;5054870;28;20028;-75
2022/01/12 04:33:52;;;;;;;8.63;5.13;;;5.80;75.30;;;;;;5054861;28;20543;-74
2022/01/12 04:36:18;;;;;;;7.47;5.57;;;5.80;75.30;;;;;;5054850;28;20016;-74
2022/01/12 04:38:46;;;;;;;8.10;4.82;;;5.80;75.40;;;;;;5038221;28;20040;-74
2022/01/12 04:41:13;;;;;;;8.85;5.55;;;5.70;75.20;;;;;;5054622;28;20596;-74
2022/01/12 04:43:43;;;;;;;9.02;4.95;;;5.70;75.20;;;;;;5054002;28;20129;-74
2022/01/12 04:51:10;;;;;;;7.80;4.80;;;5.60;75.10;;;;;;5054495;28;20060;-74
2022/01/12 04:53:36;;;;;;;8.43;4.78;;;5.60;75.10;;;;;;5071968;28;20035;-74
2022/01/12 04:56:03;;;;;;;8.13;5.10;;;5.60;75.10;;;;;;5054191;28;20032;-75
2022/01/12 04:58:30;;;;;;;7.55;4.65;;;5.60;75.10;;;;;;5054224;28;20119;-75
2022/01/12 05:01:04;;;;;;;5.47;4.35;;;5.60;75.10;;;;;;5053873;28;20527;-74
2022/01/12 05:14:00;;;;;;;8.57;5.70;;;5.50;74.80;;;;;;5055720;28;20036;-75
2022/01/12 05:16:27;;;;;;;8.23;4.80;;;5.40;74.60;;;;;;5057055;28;20037;-74
2022/01/12 05:18:54;;;;;;;7.82;5.10;;;5.40;74.60;;;;;;5056501;28;20060;-75
2022/01/12 05:21:23;;;;;;;6.93;4.47;;;5.40;74.60;;;;;;5056716;28;20164;-74
2022/01/12 05:23:51;;;;;;;8.32;4.80;;;5.40;74.60;;;;;;5073854;28;20025;-75
2022/01/12 05:26:17;;;;;;;7.25;4.60;;;5.40;74.60;;;;;;5055830;28;20025;-74
2022/01/12 05:28:44;;;;;;;9.27;5.35;;;5.30;74.50;;;;;;5054801;28;20028;-74
2022/01/12 05:31:11;;;;;;;8.48;5.65;;;5.30;74.50;;;;;;5054408;28;20033;-74
2022/01/12 05:33:41;;;;;;;9.77;4.95;;;5.30;74.50;;;;;;5054026;28;20036;-75
2022/01/12 05:36:07;;;;;;;9.15;5.15;;;5.20;74.40;;;;;;5055028;28;20048;-75
2022/01/12 05:38:34;;;;;;;10.77;5.43;;;5.20;74.40;;;;;;5067078;28;20032;-75
2022/01/12 05:41:05;;;;;;;8.80;5.20;;;5.20;74.40;;;;;;5056843;28;20032;-75
2022/01/12 05:43:33;;;;;;;8.13;5.47;;;5.10;74.30;;;;;;5053549;28;20028;-75
2022/01/12 05:46:10;;;;;;;9.63;5.03;;;5.20;74.50;;;;;;5053098;28;20036;-75
2022/01/12 05:51:22;;;;;;;9.52;4.78;;;5.10;74.20;;;;;;5056131;28;20094;-75
2022/01/12 05:53:49;;;;;;;11.35;5.28;;;5.10;74.30;;;;;;5046802;28;20043;-74
2022/01/12 05:56:16;;;;;;;7.35;5.85;;;5.00;74.10;;;;;;5069616;28;20722;-74
2022/01/12 05:58:43;;;;;;;8.40;4.80;;;5.10;74.20;;;;;;5064612;28;20123;-75
2022/01/12 06:01:09;;;;;;;8.30;4.95;;;5.10;74.30;;;;;;5046357;28;20063;-74
2022/01/12 06:03:35;;;;;;;8.05;5.55;;;5.00;74.10;;;;;;5041282;28;20090;-74
2022/01/12 06:06:04;;;;;;;10.10;5.05;;;5.00;74.00;;;;;;5050672;28;20035;-74
2022/01/12 06:08:30;;;;;;;10.23;4.65;;;5.00;74.00;;;;;;5045790;28;20044;-74
2022/01/12 06:10:56;;;;;;;7.05;5.20;;;5.00;74.00;;;;;;5076537;28;20028;-75
2022/01/12 06:13:22;;;;;;;10.07;5.05;;;5.00;74.00;;;;;;5054046;28;20212;-74
2022/01/12 06:15:49;;;;;;;8.40;4.90;;;5.00;74.00;;;;;;5027776;28;20036;-74
2022/01/12 06:18:15;;;;;;;11.27;5.78;;;4.90;73.80;;;;;;5035610;28;20028;-75
2022/01/12 06:20:41;;;;;;;8.82;5.38;;;4.90;73.80;;;;;;5048234;28;20024;-74
2022/01/12 06:23:07;;;;;;;10.43;5.47;;;4.90;73.80;;;;;;5065806;28;20064;-75
2022/01/12 06:25:35;;;;;;;11.25;5.38;;;4.90;73.80;;;;;;5031613;28;20046;-73
2022/01/12 06:28:23;;;;;;;7.10;5.15;;;4.90;73.80;;;;;;5047441;28;20032;-74
2022/01/12 06:33:34;;;;;;;7.25;4.93;;;4.80;73.60;;;;;;5028216;28;20041;-75
2022/01/12 06:36:00;;;;;;;9.35;5.22;;;4.80;73.60;;;;;;5027262;28;20063;-74
2022/01/12 06:38:26;;;;;;;9.50;5.05;;;4.70;73.50;;;;;;5056368;28;20036;-74
2022/01/12 06:40:52;;;;;;;7.15;4.72;;;4.70;73.50;;;;;;5066069;28;20028;-74
2022/01/12 06:43:19;;;;;;;8.35;5.28;;;4.80;73.70;;;;;;5046924;28;20484;-75
2022/01/12 06:45:45;;;;;;;8.50;4.90;;;4.80;73.70;;;;;;5047769;28;20073;-76
2022/01/12 06:48:11;;;;;;;7.75;5.05;;;4.70;73.50;;;;;;5066191;28;20033;-74
2022/01/12 06:50:37;;;;;;;7.95;5.40;;;4.70;73.60;;;;;;5047909;28;20507;-76
2022/01/12 06:53:03;;;;;;;7.50;5.10;;;4.70;73.50;;;;;;5057180;28;20032;-76
2022/01/12 06:55:29;;;;;;;8.57;5.18;;;4.70;73.90;;;;;;5073940;28;20412;-74
2022/01/12 06:57:56;;;;;;;14.82;5.65;;;4.70;73.40;;;;;;5047129;28;20048;-76
2022/01/12 07:00:22;;;;;;;9.35;5.28;;;4.70;73.40;;;;;;5066036;28;20764;-74
2022/01/12 07:02:48;;;;;;;8.05;5.53;;;4.70;73.40;;;;;;5065908;28;20365;-74
2022/01/12 07:05:16;;;;;;;9.77;5.65;;;4.70;73.30;;;;;;5064458;28;20036;-73
2022/01/12 07:07:42;;;;;;;10.40;6.15;;;4.70;73.30;;;;;;5047500;28;20119;-73
2022/01/12 07:10:19;;;;;;;10.50;5.90;;;4.70;73.30;;;;;;5047621;28;20388;-74
2022/01/12 07:12:46;;;;;;;8.95;5.22;;;4.60;73.10;;;;;;5047960;28;20033;-74
2022/01/12 07:15:12;;;;;;;9.25;5.15;;;4.60;73.10;;;;;;5064299;28;20646;-73
2022/01/12 07:17:42;;;;;;;7.00;5.38;;;4.60;73.60;;;;;;5044756;28;20047;-73
2022/01/12 07:20:09;;;;;;;9.75;5.55;;;4.60;73.60;;;;;;5028679;28;20033;-76
2022/01/12 07:22:39;;;;;;;9.77;4.80;;;4.60;73.10;;;;;;5028659;28;20025;-77
2022/01/12 07:25:05;;;;;;;9.63;6.90;;;4.60;73.20;;;;;;5050736;28;20109;-76
2022/01/12 07:27:31;;;;;;;9.15;5.53;;;4.60;73.30;;;;;;5035955;28;20036;-76
2022/01/12 07:29:58;;;;;;;10.65;5.95;;;4.60;73.30;;;;;;5060000;28;20036;-75
2022/01/12 07:32:24;;;;;;;11.30;5.93;;;4.60;73.20;;;;;;5051324;28;20032;-76
2022/01/12 07:34:50;;;;;;;7.75;5.85;;;4.60;73.20;;;;;;5079137;28;20120;-75
2022/01/12 07:37:16;;;;;;;7.47;5.50;;;4.60;73.10;;;;;;5088865;28;20147;-76
2022/01/12 07:39:42;;;;;;;10.82;5.72;;;4.60;73.20;;;;;;5049207;28;20036;-76
2022/01/12 07:42:10;;;;;;;9.77;5.30;;;4.50;73.00;;;;;;5048057;28;20385;-76
2022/01/12 07:44:36;;;;;;;9.43;5.63;;;4.50;73.00;;;;;;5047923;28;20130;-76
2022/01/12 07:47:03;;;;;;;8.57;5.78;;;4.60;73.20;;;;;;5045295;28;20656;-76
2022/01/12 07:49:29;;;;;;;11.02;5.75;;;4.50;73.00;;;;;;5050859;28;20162;-76
2022/01/12 07:51:55;;;;;;;8.82;6.25;;;4.50;73.00;;;;;;5030157;28;20453;-76
2022/01/12 07:54:21;;;;;;;9.13;5.65;;;4.50;73.00;;;;;;5048167;28;20037;-76
2022/01/12 07:56:46;;;;;;;13.23;5.85;;;4.50;73.50;;;;;;5048992;28;20041;-76
2022/01/12 07:59:12;;;;;;;8.50;5.38;;;4.50;73.00;;;;;;5048945;28;20119;-76
2022/01/12 08:01:38;;;;;;;12.02;6.30;;;4.40;72.80;;;;;;5049155;28;20033;-75
2022/01/12 08:04:04;;;;;;;8.05;6.07;;;4.50;72.90;;;;;;5047128;28;20033;-76
2022/01/12 08:06:30;;;;;;;8.68;5.82;;;4.50;72.90;;;;;;5031042;28;20052;-75
2022/01/12 08:08:57;;;;;;;10.15;5.88;;;4.40;72.70;;;;;;5047220;28;20036;-76
2022/01/12 08:11:23;;;;;;;11.93;6.85;;;4.40;72.70;;;;;;5050313;28;20036;-75
2022/01/12 08:13:50;;;;;;;10.52;5.95;;;4.40;72.70;;;;;;5063052;28;20207;-77
2022/01/12 08:16:16;;;;;;;11.48;6.05;;;4.40;72.70;;;;;;5064908;28;20024;-76
2022/01/12 08:18:42;;;;;;;7.70;5.40;;;4.40;72.70;;;;;;5067752;28;20036;-76
2022/01/12 08:21:08;;;;;;;10.63;5.57;;;4.30;72.50;;;;;;5068328;28;20283;-76
2022/01/12 08:23:35;;;;;;;10.02;5.93;;;4.30;72.50;;;;;;5050665;28;20070;-76
2022/01/12 08:26:01;;;;;;;11.85;5.60;;;4.30;72.50;;;;;;5068677;28;20082;-76
2022/01/12 08:28:27;;;;;;;10.02;5.60;;;4.30;72.50;;;;;;5066812;28;20020;-77
2022/01/12 08:30:53;;;;;;;9.50;5.93;;;4.30;72.50;;;;;;5067738;28;20268;-75
2022/01/12 08:33:19;;;;;;;7.80;5.55;;;4.30;72.50;;;;;;5067373;28;20059;-75
2022/01/12 08:35:45;;;;;;;11.48;6.07;;;4.30;72.50;;;;;;5067497;28;20058;-75
2022/01/12 08:38:11;;;;;;;9.95;6.28;;;4.30;72.40;;;;;;5067412;28;20028;-75
2022/01/12 08:40:38;;;;;;;11.32;5.90;;;4.30;72.40;;;;;;5051841;28;20442;-75
2022/01/12 08:43:06;;;;;;;9.40;6.13;;;4.30;72.40;;;;;;5067528;28;20075;-74
2022/01/12 08:45:33;;;;;;;10.75;6.63;;;4.30;72.40;;;;;;5050278;28;20036;-75
2022/01/12 08:47:59;;;;;;;9.48;5.30;;;4.40;72.50;;;;;;5054577;28;20028;-76
2022/01/12 08:50:25;;;;;;;13.88;7.03;;;4.40;72.40;;;;;;5070322;28;20543;-75
2022/01/12 08:52:51;;;;;;;10.20;6.05;;;4.40;72.40;;;;;;5068833;28;20024;-76
2022/01/12 08:55:21;;;;;;;11.00;5.32;;;4.40;72.40;;;;;;5068894;28;20598;-77
2022/01/12 08:57:47;;;;;;;12.60;5.93;;;4.40;72.30;;;;;;5067183;28;20048;-75
2022/01/12 09:00:15;;;;;;;10.70;6.50;;;4.50;72.40;;;;;;5050408;28;20036;-75
2022/01/12 09:02:41;;;;;;;12.23;5.93;;;4.50;72.40;;;;;;5067199;28;20123;-77
2022/01/12 09:05:08;;;;;;;11.05;7.38;;;4.50;72.30;;;;;;5067716;28;20419;-76
2022/01/12 09:07:34;;;;;;;11.15;6.20;;;4.50;72.30;;;;;;5067229;28;20036;-77
2022/01/12 09:10:01;;;;;;;12.10;6.82;;;4.60;72.40;;;;;;5065662;28;20031;-74
2022/01/12 09:12:27;;;;;;;8.98;5.47;;;4.50;72.20;;;;;;5066704;28;20028;-75
2022/01/12 09:14:53;;;;;;;10.50;5.65;;;4.60;72.30;;;;;;5067104;28;20040;-77
2022/01/12 09:17:23;;;;;;;9.98;6.30;;;4.60;72.30;;;;;;5066800;28;20029;-77
2022/01/12 09:19:51;;;;;;;13.35;5.88;;;4.60;72.20;;;;;;5067637;28;20021;-76
2022/01/12 09:22:17;;;;;;;12.95;5.85;;;4.70;72.40;;;;;;5066028;28;20064;-76
2022/01/12 09:24:44;;;;;;;9.48;5.82;;;4.70;72.40;;;;;;5064683;28;20028;-74
2022/01/12 09:27:11;;;;;;;11.82;5.95;;;4.70;72.30;;;;;;5066337;28;20032;-74
2022/01/12 09:29:37;;;;;;;9.75;6.65;;;4.70;72.30;;;;;;5066366;28;20467;-76
2022/01/12 09:32:03;;;;;;;12.10;6.00;;;4.80;72.40;;;;;;5048386;28;20029;-77
2022/01/12 09:34:30;;;;;;;12.65;6.18;;;4.80;72.40;;;;;;5066580;28;20076;-75
2022/01/12 09:36:56;;;;;;;8.50;5.82;;;4.80;72.30;;;;;;5067450;28;20025;-75
2022/01/12 09:39:22;;;;;;;11.82;6.10;;;4.80;72.30;;;;;;5040605;28;20040;-76
2022/01/12 09:41:48;;;;;;;9.40;6.38;;;4.90;72.50;;;;;;5061187;28;20028;-76
2022/01/12 09:44:15;;;;;;;10.32;5.78;;;4.90;72.40;;;;;;5065147;28;20787;-76
2022/01/12 09:46:42;;;;;;;10.30;6.43;;;4.90;72.30;;;;;;5065883;28;20021;-76
2022/01/12 09:49:08;;;;;;;9.30;5.32;;;4.90;72.30;;;;;;5052527;28;20037;-75
2022/01/12 09:51:34;;;;;;;7.55;5.53;;;5.00;72.50;;;;;;5028654;28;20105;-76
2022/01/12 09:54:00;;;;;;;12.05;6.32;;;5.00;72.40;;;;;;5046145;28;20072;-76
2022/01/12 09:56:30;;;;;;;13.20;5.80;;;5.00;72.40;;;;;;5028533;28;20132;-75
2022/01/12 09:59:01;;;;;;;8.07;5.60;;;5.00;72.30;;;;;;5038329;28;20028;-74
2022/01/12 10:01:33;;;;;;;15.88;6.93;;;5.10;72.50;;;;;;5046297;28;20048;-74
2022/01/12 10:04:09;;;;;;;11.27;6.60;;;5.10;72.50;;;;;;5046017;28;20029;-74
2022/01/12 10:06:41;;;;;;;8.38;5.82;;;5.10;72.50;;;;;;5028323;28;20838;-76
2022/01/12 10:09:08;;;;;;;11.07;5.90;;;5.10;72.50;;;;;;5042456;28;20029;-75
2022/01/12 10:11:38;;;;;;;10.88;6.15;;;5.10;72.40;;;;;;5066541;28;20327;-74
2022/01/12 10:14:06;;;;;;;12.57;6.90;;;5.10;72.40;;;;;;5048052;28;20048;-77
2022/01/12 10:16:32;;;;;;;12.27;6.50;;;5.20;72.60;;;;;;5065030;28;20538;-76
2022/01/12 10:19:00;;;;;;;11.70;6.97;;;5.10;72.40;;;;;;5047534;28;20036;-75
2022/01/12 10:21:36;;;;;;;10.85;7.22;;;5.20;72.60;;;;;;5066333;28;20055;-76
2022/01/12 10:24:11;;;;;;;13.40;6.95;;;5.20;72.60;;;;;;5066178;28;20111;-76
2022/01/12 10:26:44;;;;;;;10.48;6.70;;;5.20;72.60;;;;;;5065099;28;20476;-76
2022/01/12 10:29:16;;;;;;;8.52;6.53;;;5.20;72.50;;;;;;5055076;28;20090;-75
2022/01/12 10:31:53;;;;;;;14.15;6.90;;;5.20;72.50;;;;;;5047732;28;20032;-75
2022/01/12 10:34:25;;;;;;;13.20;7.07;;;5.20;72.50;;;;;;5065217;28;20259;-76
2022/01/12 10:36:53;;;;;;;13.10;7.70;;;5.30;72.60;;;;;;5066189;28;20090;-76
2022/01/12 10:39:22;;;;;;;11.95;7.47;;;5.30;72.60;;;;;;5050972;28;20025;-76
2022/01/12 10:42:03;;;;;;;13.23;7.78;;;5.30;72.60;;;;;;5046389;28;20036;-76
2022/01/12 10:44:40;;;;;;;11.73;7.35;;;5.30;72.60;;;;;;5045991;28;20477;-76
2022/01/12 10:47:07;;;;;;;10.18;6.97;;;5.30;72.60;;;;;;5046978;28;20064;-75
2022/01/12 10:49:36;;;;;;;11.77;7.45;;;5.30;72.60;;;;;;5046850;28;20064;-76
2022/01/12 10:52:05;;;;;;;10.70;7.38;;;5.40;72.80;;;;;;5045280;28;20398;-75
2022/01/12 10:54:45;;;;;;;13.18;8.15;;;5.40;72.80;;;;;;5045978;28;20037;-75
2022/01/12 10:57:33;;;;;;;14.55;7.70;;;5.50;73.00;;;;;;5024981;28;20314;-75
2022/01/12 11:00:19;;;;;;;10.45;7.50;;;5.40;72.80;;;;;;5030496;28;20038;-75
2022/01/12 11:02:52;;;;;;;12.55;7.85;;;5.50;72.90;;;;;;5030308;28;20072;-76
2022/01/12 11:05:20;;;;;;;13.23;7.60;;;5.50;72.80;;;;;;5049472;28;20033;-75
2022/01/12 11:07:46;;;;;;;14.75;8.20;;;5.60;73.50;;;;;;5049585;28;20272;-75
2022/01/12 11:10:12;;;;;;;10.77;7.95;;;5.60;73.00;;;;;;5047089;28;20240;-76
2022/01/12 11:12:39;;;;;;;14.38;8.07;;;5.60;73.00;;;;;;5049119;28;20090;-75
2022/01/12 11:15:10;;;;;;;15.60;8.20;;;5.70;73.10;;;;;;5049516;28;20045;-75
2022/01/12 11:17:38;;;;;;;11.73;7.43;;;5.70;73.20;;;;;;5048855;28;20435;-75
2022/01/12 11:20:28;;;;;;;13.02;7.60;;;5.70;73.10;;;;;;5063923;28;20033;-75
2022/01/12 11:23:03;;;;;;;14.73;8.70;;;5.70;73.10;;;;;;5039131;28;20041;-75
2022/01/12 11:25:34;;;;;;;11.38;8.02;;;5.80;73.20;;;;;;5048760;28;20032;-73
2022/01/12 11:28:23;;;;;;;15.77;8.25;;;5.80;73.20;;;;;;5049210;28;20500;-75
2022/01/12 11:30:50;;;;;;;15.43;8.13;;;5.80;73.20;;;;;;5064468;28;20840;-75
2022/01/12 11:33:21;;;;;;;12.85;8.43;;;5.80;73.20;;;;;;5048227;28;20119;-75
2022/01/12 11:35:50;;;;;;;14.57;7.82;;;5.90;73.40;;;;;;5048880;28;20134;-74
2022/01/12 11:38:35;;;;;;;14.13;8.48;;;5.90;73.40;;;;;;5048659;28;20055;-75
2022/01/12 11:41:21;;;;;;;17.65;8.45;;;5.90;73.40;;;;;;5048684;28;20254;-75
2022/01/12 11:43:53;;;;;;;19.60;9.50;;;6.00;73.60;;;;;;5048640;28;20037;-75
2022/01/12 11:46:23;;;;;;;14.47;9.37;;;6.00;73.50;;;;;;5048400;28;20127;-75
2022/01/12 11:48:52;;;;;;;15.23;9.70;;;6.00;73.50;;;;;;5047987;28;20266;-75
2022/01/12 11:51:20;;;;;;;15.55;10.77;;;6.00;73.50;;;;;;5048655;28;20025;-76
2022/01/12 11:53:55;;;;;;;16.58;10.73;;;6.10;73.70;;;;;;5040451;28;20070;-74
2022/01/12 11:56:24;;;;;;;17.13;8.75;;;6.10;73.70;;;;;;5030952;28;20033;-74
2022/01/12 11:59:07;;;;;;;15.68;9.02;;;6.10;73.70;;;;;;5048279;28;20945;-75
2022/01/12 12:01:45;;;;;;;20.42;10.13;;;6.20;73.80;;;;;;5048384;28;20029;-75
2022/01/12 12:04:52;;;;;;;13.73;9.20;;;6.20;73.80;;;;;;5047222;28;20083;-75
2022/01/12 12:07:18;;;;;;;16.52;10.63;;;6.30;74.00;;;;;;5027225;28;20347;-75
2022/01/12 12:09:54;;;;;;;15.02;9.20;;;6.30;73.90;;;;;;5032955;28;20029;-73
2022/01/12 12:12:22;;;;;;;17.33;9.88;;;6.30;73.90;;;;;;5051275;28;20120;-75
2022/01/12 12:14:50;;;;;;;20.33;10.82;;;6.40;74.10;;;;;;5050413;28;20210;-75
2022/01/12 12:17:17;;;;;;;15.85;10.65;;;6.40;74.10;;;;;;5048678;28;20035;-76
2022/01/12 12:19:45;;;;;;;18.17;10.35;;;6.40;74.10;;;;;;5048769;28;20029;-76
2022/01/12 12:22:16;;;;;;;16.23;10.68;;;6.50;74.30;;;;;;5049594;28;20467;-76
2022/01/12 12:24:44;;;;;;;16.25;10.45;;;6.50;74.20;;;;;;5049140;28;20037;-73
2022/01/12 12:27:11;;;;;;;15.95;9.75;;;6.50;74.30;;;;;;5049431;28;20474;-77
2022/01/12 12:29:37;;;;;;;13.52;10.07;;;6.60;74.70;;;;;;5031437;28;20041;-73
2022/01/12 12:32:06;;;;;;;13.55;9.65;;;6.70;74.90;;;;;;5049102;28;20091;-76
2022/01/12 12:34:34;;;;;;;17.60;10.25;;;6.80;75.00;;;;;;5047980;28;20055;-75
2022/01/12 12:37:08;;;;;;;14.88;9.40;;;6.90;75.10;;;;;;5048759;28;20476;-75
2022/01/12 12:39:37;;;;;;;15.73;9.43;;;6.90;75.00;;;;;;5048122;28;20021;-75
2022/01/12 12:42:05;;;;;;;16.65;9.82;;;6.90;75.00;;;;;;5048174;28;20036;-75
2022/01/12 12:44:33;;;;;;;16.38;10.05;;;7.00;75.10;;;;;;5048758;28;20025;-75
2022/01/12 12:47:13;;;;;;;18.63;10.77;;;7.00;75.10;;;;;;5047176;28;20032;-75
2022/01/12 12:49:58;;;;;;;14.07;9.40;;;7.00;75.20;;;;;;5047687;28;20053;-74
2022/01/12 12:52:35;;;;;;;16.75;8.90;;;7.10;75.40;;;;;;5047160;28;20032;-75
2022/01/12 12:55:11;;;;;;;13.68;9.50;;;7.10;75.30;;;;;;5046984;28;20041;-75
2022/01/12 12:57:49;;;;;;;13.20;9.38;;;7.10;75.30;;;;;;5047118;28;20110;-75
2022/01/12 13:00:21;;;;;;;17.23;10.60;;;7.20;75.50;;;;;;5047296;28;20028;-74
2022/01/12 13:02:50;;;;;;;16.98;9.90;;;7.20;75.50;;;;;;5046869;28;20075;-75
2022/01/12 13:05:28;;;;;;;18.88;10.10;;;7.20;75.50;;;;;;5067188;28;20074;-75
2022/01/12 13:07:55;;;;;;;13.98;9.57;;;7.30;75.60;;;;;;5066646;28;20028;-75
2022/01/12 13:10:24;;;;;;;20.30;11.90;;;7.30;75.60;;;;;;5067428;28;20070;-75
2022/01/12 13:12:56;;;;;;;16.33;9.82;;;7.30;75.70;;;;;;5067452;28;20028;-75
2022/01/12 13:15:29;;;;;;;19.08;10.38;;;7.30;75.60;;;;;;5047513;28;20522;-75
2022/01/12 13:18:18;;;;;;;13.77;10.18;;;7.40;75.80;;;;;;5046610;28;20029;-76
2022/01/12 13:23:40;;;;;;;15.35;9.73;;;7.50;75.90;;;;;;5042157;28;20051;-75
2022/01/12 13:26:07;;;;;;;15.35;9.32;;;7.50;75.90;;;;;;5048519;28;20029;-73
2022/01/12 13:28:38;;;;;;;15.23;9.38;;;7.50;75.90;;;;;;5047793;28;20016;-74
2022/01/12 13:31:09;;;;;;;17.55;10.13;;;7.50;75.90;;;;;;5063796;28;20098;-76
2022/01/12 13:33:45;;;;;;;15.25;9.27;;;7.50;75.90;;;;;;5046569;28;20040;-75
2022/01/12 13:36:25;;;;;;;20.13;9.52;;;7.60;76.00;;;;;;5046585;28;20175;-75
2022/01/12 13:38:57;;;;;;;15.73;9.43;;;7.50;75.90;;;;;;5035747;28;20032;-75
2022/01/12 13:41:28;;;;;;;20.57;10.10;;;7.60;76.00;;;;;;5046757;28;20056;-74
2022/01/12 13:44:01;;;;;;;16.50;9.05;;;7.60;76.10;;;;;;5048374;28;20129;-76
2022/01/12 13:46:31;;;;;;;;;;;7.60;76.10;;;;;;5049461;28;20024;-75
2022/01/12 13:52:07;;;;;;;15.27;10.73;;;7.60;76.00;;;;;;5062946;28;20040;-76
2022/01/12 13:54:37;;;;;;;17.05;9.65;;;7.70;76.20;;;;;;5066353;28;20051;-76
2022/01/12 13:57:05;;;;;;;13.50;10.30;;;7.70;76.20;;;;;;5065785;28;20511;-74
2022/01/12 13:59:42;;;;;;;17.77;9.63;;;7.70;76.20;;;;;;5050723;28;20032;-74
2022/01/12 14:02:13;;;;;;;14.65;8.52;;;7.70;76.20;;;;;;5045485;28;20090;-74
2022/01/12 14:04:43;;;;;;;16.77;9.68;;;7.70;76.30;;;;;;5046740;28;20344;-74
2022/01/12 14:07:12;;;;;;;16.65;9.68;;;7.70;76.20;;;;;;5046611;28;20408;-75
2022/01/12 14:09:41;;;;;;;15.02;8.52;;;7.70;76.20;;;;;;5046749;28;20033;-75
2022/01/12 14:12:16;;;;;;;17.63;9.40;;;7.70;76.20;;;;;;5045981;28;20029;-75
2022/01/12 14:14:53;;;;;;;14.20;8.18;;;7.70;76.20;;;;;;5045711;28;20455;-75
2022/01/12 14:17:33;;;;;;;13.55;9.40;;;7.70;76.30;;;;;;5046613;28;20039;-74
2022/01/12 14:20:01;;;;;;;15.60;9.30;;;7.70;76.20;;;;;;5046909;28;20029;-75
2022/01/12 14:22:28;;;;;;;13.55;9.25;;;7.70;76.20;;;;;;5046769;28;20029;-74
2022/01/12 14:25:03;;;;;;;14.70;8.38;;;7.70;76.20;;;;;;5045710;28;20025;-74
2022/01/12 14:27:48;;;;;;;15.02;7.88;;;7.70;76.20;;;;;;5028949;28;20387;-75